Time;durP1;ratioP1;P1;durP2;ratioP2;P2;SDS_P1;SDS_P2;PMS_P1;PMS_P2;Temp;Humidity;BMP_temperature;BMP_pressure;BME280_temperature;BME280_humidity;BME280_pressure;Samples;Min_cycle;Max_cycle;Signal;HPM_P1;HPM_P2
2023/05/17 00:00:08;;;;;;;;;7.00;7.00;;;;;11.29;100.00;98022.78;4819661;29;102548;-74
2023/05/17 00:02:36;;;;;;;;;11.00;10.00;;;;;11.21;100.00;98014.94;4813953;28;102710;-74
2023/05/17 00:05:11;;;;;;;;;10.00;8.75;;;;;11.19;100.00;98019.72;4818812;29;102266;-74
2023/05/17 00:07:55;;;;;;;;;10.75;9.50;;;;;11.15;100.00;98013.09;4821186;28;108945;-75
2023/05/17 00:10:44;;;;;;;;;8.25;8.00;;;;;11.18;100.00;98010.78;4817103;29;102192;-75
2023/05/17 00:13:27;;;;;;;;;11.25;9.50;;;;;11.13;100.00;98007.91;4812566;29;102532;-74
2023/05/17 00:16:01;;;;;;;;;9.00;9.00;;;;;11.12;100.00;98000.81;4820395;29;102238;-73
2023/05/17 00:18:28;;;;;;;;;7.25;6.50;;;;;11.08;100.00;98009.59;4816718;28;104122;-73
2023/05/17 00:20:55;;;;;;;;;6.00;5.75;;;;;11.03;100.00;98006.75;4821815;29;102130;-73
2023/05/17 00:23:22;;;;;;;;;9.00;6.75;;;;;11.03;100.00;98017.56;4819674;28;102233;-73
2023/05/17 00:25:49;;;;;;;;;10.00;8.25;;;;;11.02;100.00;98021.31;4823567;29;102150;-74
2023/05/17 00:28:16;;;;;;;;;6.25;5.00;;;;;11.10;100.00;98023.75;4819194;29;108915;-74
2023/05/17 00:30:43;;;;;;;;;5.75;5.25;;;;;11.10;100.00;98024.56;4816930;28;102052;-74
2023/05/17 00:33:10;;;;;;;;;7.00;6.00;;;;;11.09;100.00;98025.63;4817554;28;102093;-73
2023/05/17 00:35:37;;;;;;;;;8.50;7.75;;;;;11.12;100.00;98029.78;4825794;28;101932;-73
2023/05/17 00:38:04;;;;;;;;;11.75;11.00;;;;;11.10;100.00;98023.75;4822342;28;104065;-74
2023/05/17 00:40:31;;;;;;;;;8.00;6.50;;;;;11.09;100.00;98011.25;4820120;29;103857;-73
2023/05/17 00:42:58;;;;;;;;;5.50;5.50;;;;;11.10;100.00;98008.34;4826234;28;102056;-72
2023/05/17 00:45:25;;;;;;;;;6.25;6.25;;;;;11.10;100.00;98007.50;4824943;28;102037;-73
2023/05/17 00:47:53;;;;;;;;;7.50;6.75;;;;;11.05;100.00;98010.03;4824659;28;104208;-73
2023/05/17 00:50:20;;;;;;;;;7.50;7.00;;;;;11.03;100.00;98012.16;4826396;28;102275;-74
2023/05/17 00:52:47;;;;;;;;;5.75;5.75;;;;;11.03;100.00;98018.38;4820674;28;102099;-73
2023/05/17 00:55:14;;;;;;;;;10.00;10.00;;;;;11.02;100.00;98021.31;4825527;28;102063;-73
2023/05/17 00:57:41;;;;;;;;;11.25;10.25;;;;;10.97;100.00;98010.31;4822847;28;104050;-73
2023/05/17 01:00:09;;;;;;;;;7.75;7.75;;;;;11.00;100.00;98007.16;4826923;28;102004;-72
2023/05/17 01:02:36;;;;;;;;;13.50;8.75;;;;;10.98;100.00;98004.69;4816493;28;102147;-72
2023/05/17 01:05:15;;;;;;;;;10.75;10.00;;;;;11.00;100.00;98004.44;4819972;28;102132;-73
2023/05/17 01:07:56;;;;;;;;;7.00;7.00;;;;;10.96;100.00;98001.34;4822026;28;108890;-74
2023/05/17 01:11:05;;;;;;;;;11.75;9.00;;;;;10.94;100.00;98005.34;4818402;28;102301;-74
2023/05/17 01:14:27;;;;;;;;;9.50;7.75;;;;;10.98;100.00;98003.84;4821710;28;104379;-74
2023/05/17 01:17:24;;;;;;;;;10.00;10.00;;;;;10.96;100.00;97995.13;4723395;29;102359;-74
2023/05/17 01:20:25;;;;;;;;;11.25;8.25;;;;;10.92;100.00;97999.31;4819581;28;107639;-73
2023/05/17 01:23:13;;;;;;;;;9.25;9.25;;;;;10.94;100.00;98002.63;4823290;28;101983;-75
2023/05/17 01:26:14;;;;;;;;;9.75;7.00;;;;;10.96;100.00;98001.34;4821882;28;102033;-75
2023/05/17 01:28:45;;;;;;;;;10.50;10.50;;;;;10.97;100.00;97999.50;4823224;28;102429;-74
2023/05/17 01:31:13;;;;;;;;;5.50;5.25;;;;;11.02;100.00;98008.63;4823777;28;104022;-74
2023/05/17 01:33:40;;;;;;;;;10.25;9.75;;;;;10.96;100.00;98012.19;4823309;28;102037;-74
2023/05/17 01:36:08;;;;;;;;;6.25;6.00;;;;;11.02;100.00;98018.59;4822240;28;102098;-73
2023/05/17 01:38:35;;;;;;;;;6.00;6.00;;;;;11.06;100.00;98015.25;4824570;28;102451;-74
2023/05/17 01:41:28;;;;;;;;;12.00;10.00;;;;;10.99;100.00;98016.31;4824059;28;104414;-74
2023/05/17 01:44:19;;;;;;;;;11.25;10.75;;;;;10.95;100.00;98012.38;4819252;29;102074;-72
2023/05/17 01:46:52;;;;;;;;;10.50;10.00;;;;;10.98;100.00;98022.78;4821973;28;101901;-74
2023/05/17 01:49:28;;;;;;;;;9.00;9.00;;;;;10.97;100.00;98013.00;4819785;29;102329;-73
2023/05/17 01:52:07;;;;;;;;;8.00;7.00;;;;;11.01;100.00;98015.06;4819936;28;108757;-71
2023/05/17 01:55:07;;;;;;;;;10.00;10.00;;;;;11.00;100.00;98017.97;4818072;29;102291;-74
2023/05/17 01:57:36;;;;;;;;;9.00;9.00;;;;;10.93;100.00;98001.81;4818198;29;102292;-74
2023/05/17 02:00:10;;;;;;;;;9.00;9.00;;;;;11.02;100.00;98016.72;4823046;29;102323;-73
2023/05/17 02:02:37;;;;;;;;;11.00;10.00;;;;;11.04;100.00;98024.59;4805507;28;104014;-74
2023/05/17 02:05:04;;;;;;;;;9.25;8.00;;;;;11.08;100.00;98015.84;4818864;29;102279;-74
2023/05/17 02:07:32;;;;;;;;;9.50;9.25;;;;;11.03;100.00;98029.19;4820370;28;102425;-73
2023/05/17 02:09:59;;;;;;;;;9.50;9.50;;;;;10.98;100.00;98028.19;4820645;28;102261;-73
2023/05/17 02:12:25;;;;;;;;;9.75;7.25;;;;;11.01;100.00;98025.06;4819436;28;103786;-72
2023/05/17 02:14:52;;;;;;;;;5.50;5.50;;;;;10.78;100.00;97986.91;4823062;29;102080;-73
2023/05/17 02:17:20;;;;;;;;;9.50;9.25;;;;;11.00;100.00;98021.50;4820829;29;101929;-72
2023/05/17 02:19:47;;;;;;;;;10.50;10.50;;;;;11.01;100.00;98022.34;4822495;28;102560;-73
2023/05/17 02:22:14;;;;;;;;;11.75;10.50;;;;;10.85;100.00;98014.75;4818087;29;104030;-74
2023/05/17 02:24:41;;;;;;;;;10.00;8.25;;;;;11.05;100.00;98031.69;4820524;29;102587;-75
2023/05/17 02:27:08;;;;;;;;;9.50;9.50;;;;;11.04;100.00;98027.31;4822139;28;101974;-73
2023/05/17 02:29:35;;;;;;;;;9.00;9.00;;;;;11.02;100.00;98040.25;4821398;28;102353;-74
2023/05/17 02:32:02;;;;;;;;;6.75;6.75;;;;;11.04;100.00;98040.84;4820394;29;104082;-74
2023/05/17 02:34:29;;;;;;;;;9.00;8.00;;;;;11.05;100.00;98045.22;4819772;28;102565;-75
2023/05/17 02:36:56;;;;;;;;;7.00;7.00;;;;;11.03;100.00;98036.50;4821298;28;102314;-73
2023/05/17 02:39:24;;;;;;;;;9.00;7.25;;;;;11.01;100.00;98039.41;4821499;29;102277;-75
2023/05/17 02:41:51;;;;;;;;;9.75;9.00;;;;;11.00;100.00;98036.91;4818819;29;108739;-74
2023/05/17 02:44:18;;;;;;;;;9.50;9.00;;;;;11.00;100.00;98040.44;4820743;29;102953;-74
2023/05/17 02:46:45;;;;;;;;;9.25;9.00;;;;;11.03;100.00;98039.19;4820285;29;102624;-74
2023/05/17 02:49:12;;;;;;;;;11.00;10.00;;;;;11.00;100.00;98051.28;4822640;29;102362;-74
2023/05/17 02:51:39;;;;;;;;;7.00;7.00;;;;;10.98;100.00;98047.97;4819704;28;103394;-74
2023/05/17 02:54:06;;;;;;;;;9.00;7.75;;;;;11.01;100.00;98044.00;4805648;29;102386;-74
2023/05/17 02:56:33;;;;;;;;;8.75;8.75;;;;;10.95;100.00;98047.53;4815706;29;102488;-74
2023/05/17 02:59:00;;;;;;;;;9.00;9.00;;;;;10.98;100.00;98036.31;4820753;29;102192;-74
2023/05/17 03:01:27;;;;;;;;;10.00;7.25;;;;;11.02;100.00;98046.50;4821851;29;104326;-75
2023/05/17 03:03:54;;;;;;;;;6.00;6.00;;;;;11.06;100.00;98045.00;4823739;29;101933;-74
2023/05/17 03:06:22;;;;;;;;;10.25;10.00;;;;;11.02;100.00;98051.06;4820023;28;103803;-74
2023/05/17 03:08:49;;;;;;;;;9.00;9.00;;;;;11.03;100.00;98050.03;4823396;29;102270;-73
2023/05/17 03:11:16;;;;;;;;;9.50;8.00;;;;;11.08;100.00;98055.59;4821081;28;104120;-74
2023/05/17 03:13:45;;;;;;;;;6.25;6.00;;;;;11.11;100.00;98047.88;4821404;29;102147;-72
2023/05/17 03:16:12;;;;;;;;;8.00;7.50;;;;;11.10;100.00;98061.63;4818965;28;102672;-73
2023/05/17 03:18:39;;;;;;;;;6.75;5.75;;;;;11.15;100.00;98059.09;4821859;29;102361;-73
2023/05/17 03:21:06;;;;;;;;;7.75;7.75;;;;;11.16;100.00;98066.16;4819690;28;104160;-73
2023/05/17 03:23:33;;;;;;;;;12.00;11.00;;;;;11.13;100.00;98063.88;4819099;29;102239;-73
2023/05/17 03:26:00;;;;;;;;;9.50;8.75;;;;;11.12;100.00;98067.66;4821761;28;102118;-72
2023/05/17 03:28:27;;;;;;;;;9.75;9.75;;;;;11.08;100.00;98052.88;4823002;29;102274;-72
2023/05/17 03:30:54;;;;;;;;;8.75;6.75;;;;;11.11;100.00;98047.06;4824081;29;103977;-73
2023/05/17 03:33:21;;;;;;;;;12.00;11.25;;;;;11.06;100.00;98036.88;4821732;29;102445;-73
2023/05/17 03:35:48;;;;;;;;;11.75;11.25;;;;;11.02;100.00;98034.84;4820680;28;102479;-73
2023/05/17 03:38:15;;;;;;;;;11.00;10.00;;;;;11.03;100.00;98044.63;4818864;29;102066;-74
2023/05/17 03:40:42;;;;;;;;;12.50;8.75;;;;;11.03;100.00;98053.53;4802771;29;104171;-73
2023/05/17 03:43:09;;;;;;;;;6.25;6.00;;;;;10.98;100.00;98057.97;4820192;28;102112;-73
2023/05/17 03:45:36;;;;;;;;;7.00;7.00;;;;;10.99;100.00;98059.59;4819856;29;102226;-73
2023/05/17 03:48:04;;;;;;;;;9.75;9.00;;;;;10.98;100.00;98069.63;4820671;28;102346;-73
2023/05/17 03:50:31;;;;;;;;;8.75;8.75;;;;;10.95;100.00;98070.03;4818550;29;104057;-73
2023/05/17 03:52:58;;;;;;;;;5.00;4.00;;;;;10.97;100.00;98077.94;4817183;29;102276;-73
2023/05/17 03:55:25;;;;;;;;;12.00;10.75;;;;;10.93;100.00;98082.94;4823165;29;102426;-73
2023/05/17 03:57:52;;;;;;;;;11.25;10.00;;;;;10.92;100.00;98088.56;4820089;28;102688;-72
2023/05/17 04:00:23;;;;;;;;;9.00;9.00;;;;;10.90;100.00;98085.22;4819272;29;104046;-73
2023/05/17 04:02:50;;;;;;;;;10.00;9.00;;;;;10.98;100.00;98090.41;4819233;29;102176;-73
2023/05/17 04:05:19;;;;;;;;;10.25;10.25;;;;;10.91;100.00;98090.44;4822132;29;102513;-73
2023/05/17 04:07:46;;;;;;;;;12.25;10.00;;;;;10.94;100.00;98095.41;4814978;29;107526;-73
2023/05/17 04:10:14;;;;;;;;;12.75;11.00;;;;;10.90;100.00;98088.78;4818230;29;104192;-73
2023/05/17 04:12:42;;;;;;;;;9.75;8.25;;;;;10.88;100.00;98090.03;4819760;28;102127;-73
2023/05/17 04:15:09;;;;;;;;;11.00;10.00;;;;;10.92;100.00;98093.97;4818958;29;103578;-73
2023/05/17 04:17:36;;;;;;;;;10.75;7.25;;;;;10.95;100.00;98093.53;4820488;28;102362;-72
2023/05/17 04:20:05;;;;;;;;;9.50;9.50;;;;;10.99;100.00;98097.47;4820728;29;104205;-74
2023/05/17 04:22:32;;;;;;;;;11.75;10.00;;;;;11.00;100.00;98104.53;4818752;29;102184;-73
2023/05/17 04:25:00;;;;;;;;;12.00;11.50;;;;;10.95;100.00;98098.94;4816163;28;102203;-73
2023/05/17 04:27:27;;;;;;;;;13.50;12.75;;;;;10.86;100.00;98097.53;4820306;29;103193;-72
2023/05/17 04:29:55;;;;;;;;;13.00;11.25;;;;;10.80;100.00;98093.84;4819321;29;104161;-73
2023/05/17 04:32:22;;;;;;;;;11.75;11.00;;;;;10.85;100.00;98098.59;4816481;29;102307;-73
2023/05/17 04:34:50;;;;;;;;;14.00;13.00;;;;;10.83;100.00;98095.25;4818210;29;102146;-73
2023/05/17 04:37:18;;;;;;;;;10.75;10.00;;;;;10.84;100.00;98097.75;4819897;29;103634;-73
2023/05/17 04:39:45;;;;;;;;;14.75;13.75;;;;;10.79;100.00;98091.34;4816341;28;104056;-73
2023/05/17 04:42:12;;;;;;;;;7.50;6.25;;;;;10.81;100.00;98105.47;4820423;29;102423;-73
2023/05/17 04:44:39;;;;;;;;;9.50;8.00;;;;;10.73;100.00;98118.19;4819087;29;102219;-73
2023/05/17 04:47:06;;;;;;;;;12.00;11.25;;;;;10.68;100.00;98125.28;4817475;29;106636;-72
2023/05/17 04:49:33;;;;;;;;;10.50;9.75;;;;;10.70;100.00;98118.63;4815751;28;104049;-74
2023/05/17 04:52:00;;;;;;;;;9.00;8.50;;;;;10.67;100.00;98132.53;4818767;28;103624;-72
2023/05/17 04:54:30;;;;;;;;;8.00;8.00;;;;;10.60;100.00;98128.22;4819832;29;102098;-72
2023/05/17 04:56:57;;;;;;;;;9.25;9.00;;;;;10.67;100.00;98131.75;4820271;29;102522;-72
2023/05/17 04:59:24;;;;;;;;;5.25;4.25;;;;;10.60;100.00;98134.44;4817697;28;104203;-72
2023/05/17 05:01:51;;;;;;;;;9.50;8.50;;;;;10.55;100.00;98133.41;4820311;28;102319;-71
2023/05/17 05:04:18;;;;;;;;;6.75;5.75;;;;;10.59;100.00;98140.91;4820125;28;101944;-73
2023/05/17 05:06:46;;;;;;;;;6.50;5.50;;;;;10.66;100.00;98136.31;4816949;29;102129;-73
2023/05/17 05:09:13;;;;;;;;;11.00;10.25;;;;;10.57;100.00;98152.97;4818578;28;104176;-73
2023/05/17 05:11:39;;;;;;;;;8.00;8.00;;;;;10.53;100.00;98147.16;4817710;28;102134;-73
2023/05/17 05:14:07;;;;;;;;;10.50;9.00;;;;;10.52;100.00;98150.91;4815537;29;102789;-72
2023/05/17 05:16:34;;;;;;;;;10.50;7.75;;;;;10.41;100.00;98142.59;4820609;29;102325;-72
2023/05/17 05:19:01;;;;;;;;;9.25;8.00;;;;;10.46;100.00;98137.41;4820075;29;104050;-72
2023/05/17 05:21:29;;;;;;;;;10.50;9.75;;;;;10.42;100.00;98138.88;4821865;28;102266;-72
2023/05/17 05:23:56;;;;;;;;;7.25;7.25;;;;;10.49;100.00;98135.09;4823683;29;102304;-72
2023/05/17 05:26:23;;;;;;;;;9.25;9.00;;;;;10.41;100.00;98135.31;4825524;28;102681;-72
2023/05/17 05:28:50;;;;;;;;;8.50;8.00;;;;;10.43;100.00;98141.38;4822344;28;104102;-73
2023/05/17 05:31:17;;;;;;;;;7.50;7.50;;;;;10.42;100.00;98150.50;4823464;29;102107;-72
2023/05/17 05:33:44;;;;;;;;;10.75;9.75;;;;;10.46;100.00;98149.03;4823715;28;102037;-73
2023/05/17 05:36:11;;;;;;;;;13.00;10.50;;;;;10.42;100.00;98155.91;4823515;28;102142;-72
2023/05/17 05:38:38;;;;;;;;;12.50;10.75;;;;;10.41;100.00;98175.88;4820533;28;104227;-73
2023/05/17 05:41:05;;;;;;;;;10.50;10.50;;;;;10.35;100.00;98175.91;4823124;29;103155;-73
2023/05/17 05:43:34;;;;;;;;;11.00;9.75;;;;;10.35;100.00;98178.59;4820896;28;102425;-73
2023/05/17 05:46:02;;;;;;;;;11.50;9.00;;;;;10.35;100.00;98181.31;4823620;28;102593;-74
2023/05/17 05:48:29;;;;;;;;;11.50;11.00;;;;;10.34;100.00;98188.56;4823711;28;104067;-71
2023/05/17 05:50:56;;;;;;;;;9.75;9.25;;;;;10.37;100.00;98190.84;4823272;28;102193;-73
2023/05/17 05:53:23;;;;;;;;;11.00;11.00;;;;;10.31;100.00;98191.69;4819071;29;102375;-74
2023/05/17 05:55:50;;;;;;;;;10.75;10.00;;;;;10.33;100.00;98195.00;4823775;28;102244;-73
2023/05/17 05:58:17;;;;;;;;;10.25;10.00;;;;;10.38;100.00;98203.31;4820808;29;104009;-72
2023/05/17 06:00:44;;;;;;;;;11.25;11.25;;;;;10.33;100.00;98203.13;4821424;29;102119;-72
2023/05/17 06:03:11;;;;;;;;;11.75;11.00;;;;;10.33;100.00;98205.81;4821505;28;101932;-73
2023/05/17 06:05:39;;;;;;;;;10.75;9.75;;;;;10.34;100.00;98201.25;4820248;29;103648;-74
2023/05/17 06:08:06;;;;;;;;;14.00;11.50;;;;;10.32;100.00;98206.03;4822310;28;104043;-73
2023/05/17 06:10:33;;;;;;;;;12.50;12.50;;;;;10.28;100.00;98205.59;4821898;29;102445;-73
2023/05/17 06:13:00;;;;;;;;;5.00;5.00;;;;;10.19;100.00;98201.47;4818769;29;102102;-73
2023/05/17 06:15:27;;;;;;;;;11.00;10.00;;;;;10.24;100.00;98212.47;4826103;29;102040;-73
2023/05/17 06:17:54;;;;;;;;;13.25;12.50;;;;;10.18;100.00;98211.44;4823263;29;108772;-73
2023/05/17 06:20:22;;;;;;;;;12.50;11.00;;;;;10.19;100.00;98214.97;4821770;28;102283;-73
2023/05/17 06:22:49;;;;;;;;;11.75;11.75;;;;;10.20;100.00;98211.22;4821168;28;102337;-72
2023/05/17 06:25:16;;;;;;;;;14.50;11.50;;;;;10.18;100.00;98210.59;4820902;28;102524;-72
2023/05/17 06:27:43;;;;;;;;;10.50;10.00;;;;;10.18;100.00;98221.41;4819683;28;107096;-73
2023/05/17 06:30:11;;;;;;;;;10.25;9.00;;;;;10.23;100.00;98230.56;4820323;29;102053;-73
2023/05/17 06:32:38;;;;;;;;;10.00;9.50;;;;;10.24;100.00;98228.69;4821800;29;102227;-72
2023/05/17 06:35:05;;;;;;;;;10.00;9.00;;;;;10.25;100.00;98228.50;4819727;28;102201;-73
2023/05/17 06:37:32;;;;;;;;;8.00;6.75;;;;;10.25;100.00;98227.66;4821020;28;104039;-74
2023/05/17 06:40:05;;;;;;;;;11.50;10.25;;;;;10.27;100.00;98228.25;4824332;29;102082;-75
2023/05/17 06:42:42;;;;;;;;;10.00;9.00;;;;;10.24;100.00;98244.91;4822151;28;101965;-74
2023/05/17 06:45:09;;;;;;;;;8.50;8.25;;;;;10.20;100.00;98233.69;4822992;28;102311;-73
2023/05/17 06:47:36;;;;;;;;;12.50;10.75;;;;;10.19;100.00;98237.41;4818704;28;103992;-74
2023/05/17 06:50:05;;;;;;;;;11.00;10.00;;;;;10.26;100.00;98238.25;4814482;29;102380;-74
2023/05/17 06:52:32;;;;;;;;;12.00;12.00;;;;;10.16;100.00;98240.53;4809588;29;101954;-73
2023/05/17 06:54:59;;;;;;;;;13.75;12.00;;;;;10.13;100.00;98243.59;4821558;29;107457;-73
2023/05/17 06:57:26;;;;;;;;;10.50;10.50;;;;;10.06;100.00;98220.34;4817230;29;108951;-74
2023/05/17 06:59:53;;;;;;;;;13.00;12.25;;;;;10.17;100.00;98236.81;4812909;29;102175;-74
2023/05/17 07:02:20;;;;;;;;;11.00;9.00;;;;;10.13;100.00;98248.19;4815492;28;101800;-74
2023/05/17 07:04:47;;;;;;;;;9.50;8.75;;;;;10.13;100.00;98248.19;4816976;29;102038;-73
2023/05/17 07:07:14;;;;;;;;;12.00;11.00;;;;;10.10;100.00;98254.84;4820099;28;104160;-72
2023/05/17 07:09:41;;;;;;;;;12.25;11.25;;;;;10.07;100.00;98257.13;4819595;29;102329;-73
2023/05/17 07:12:08;;;;;;;;;13.00;13.00;;;;;10.05;100.00;98273.53;4819765;28;103102;-73
2023/05/17 07:14:35;;;;;;;;;7.75;7.50;;;;;10.08;100.00;98275.84;4818173;28;102185;-72
2023/05/17 07:17:03;;;;;;;;;11.25;11.25;;;;;10.14;100.00;98280.41;4822055;29;104209;-74
2023/05/17 07:19:30;;;;;;;;;11.25;11.25;;;;;10.19;100.00;98282.50;4819260;28;102399;-73
2023/05/17 07:21:57;;;;;;;;;14.00;13.75;;;;;10.13;100.00;98286.81;4820291;28;102081;-74
2023/05/17 07:24:24;;;;;;;;;13.50;12.50;;;;;10.16;100.00;98281.06;4822229;29;103059;-73
2023/05/17 07:26:51;;;;;;;;;13.00;12.00;;;;;10.11;100.00;98288.09;4820673;29;103991;-73
2023/05/17 07:29:18;;;;;;;;;9.75;9.00;;;;;9.94;100.00;98292.22;4822695;29;102096;-73
2023/05/17 07:31:45;;;;;;;;;11.00;10.00;;;;;9.89;100.00;98286.59;4819135;29;102940;-73
2023/05/17 07:34:12;;;;;;;;;13.50;12.50;;;;;9.72;100.00;98297.78;4822834;29;102278;-73
2023/05/17 07:36:40;;;;;;;;;6.50;5.75;;;;;9.73;100.00;98296.72;4818399;28;104053;-73
2023/05/17 07:39:08;;;;;;;;;11.00;10.50;;;;;9.63;100.00;98303.56;4819997;29;102197;-73
2023/05/17 07:41:35;;;;;;;;;13.75;12.75;;;;;9.58;100.00;98314.97;4818332;29;102200;-73
2023/05/17 07:44:02;;;;;;;;;12.50;11.50;;;;;9.59;100.00;98311.19;4819543;29;102015;-72
2023/05/17 07:46:29;;;;;;;;;13.50;13.00;;;;;9.48;100.00;98321.75;4822941;29;104716;-73
2023/05/17 07:48:56;;;;;;;;;15.75;14.50;;;;;9.39;100.00;98321.09;4821466;29;102048;-73
2023/05/17 07:51:25;;;;;;;;;17.00;15.25;;;;;9.29;100.00;98331.41;4815235;28;101853;-74
2023/05/17 07:53:52;;;;;;;;;13.50;13.50;;;;;9.25;100.00;98327.44;4817384;29;102412;-72
2023/05/17 07:56:19;;;;;;;;;17.75;14.75;;;;;9.15;100.00;98324.28;4819048;29;104129;-73
2023/05/17 07:58:46;;;;;;;;;16.50;14.50;;;;;9.15;100.00;98341.28;4818989;29;102091;-74
2023/05/17 08:01:13;;;;;;;;;21.25;19.75;;;;;9.09;100.00;98352.06;4819338;29;101938;-72
2023/05/17 08:03:46;;;;;;;;;17.25;17.25;;;;;9.09;100.00;98363.69;4817736;29;106265;-72
2023/05/17 08:06:17;;;;;;;;;16.75;15.75;;;;;9.06;100.00;98369.44;4817936;29;104202;-71
2023/05/17 08:08:44;;;;;;;;;15.25;14.25;;;;;8.96;100.00;98369.78;4818741;29;102162;-71
2023/05/17 08:11:13;;;;;;;;;21.25;20.00;;;;;8.98;100.00;98366.06;4821268;28;102234;-72
2023/05/17 08:13:40;;;;;;;;;25.50;20.50;;;;;8.91;100.00;98369.56;4822875;29;102491;-72
2023/05/17 08:16:08;;;;;;;;;21.50;20.00;;;;;8.93;100.00;98372.88;4820063;29;103382;-73
2023/05/17 08:18:41;;;;;;;;;24.75;21.00;;;;;8.95;100.00;98361.91;4819897;28;102242;-72
2023/05/17 08:21:08;;;;;;;;;18.00;16.25;;;;;8.94;100.00;98369.16;4795973;29;103169;-73
2023/05/17 08:23:35;;;;;;;;;24.25;22.00;;;;;8.93;100.00;98370.19;4821792;29;102630;-73
2023/05/17 08:26:02;;;;;;;;;18.75;16.50;;;;;8.96;100.00;98380.56;4819750;28;104235;-73
2023/05/17 08:28:29;;;;;;;;;18.75;16.75;;;;;9.05;100.00;98375.88;4821576;29;102483;-73
2023/05/17 08:30:57;;;;;;;;;22.50;19.75;;;;;8.91;100.00;98377.66;4818977;29;102677;-74
2023/05/17 08:33:24;;;;;;;;;23.50;22.00;;;;;8.98;100.00;98379.56;4820774;29;102040;-73
2023/05/17 08:35:54;;;;;;;;;18.50;16.75;;;;;9.02;100.00;98378.13;4819951;29;104021;-73
2023/05/17 08:38:21;;;;;;;;;18.00;17.00;;;;;8.98;100.00;98382.25;4815174;29;102374;-74
2023/05/17 08:40:55;;;;;;;;;16.00;13.00;;;;;9.03;100.00;98379.81;4820758;28;102966;-73
2023/05/17 08:43:23;;;;;;;;;19.50;18.75;;;;;9.08;100.00;98388.13;4818645;28;102404;-73
2023/05/17 08:45:56;;;;;;;;;22.50;20.00;;;;;9.01;100.00;98384.53;4822020;29;104033;-75
2023/05/17 08:48:29;;;;;;;;;22.50;19.25;;;;;9.01;100.00;98392.63;4821317;28;102193;-73
2023/05/17 08:50:58;;;;;;;;;18.25;18.25;;;;;9.03;100.00;98401.38;4821043;29;102107;-72
2023/05/17 08:53:26;;;;;;;;;19.50;16.75;;;;;9.08;100.00;98401.63;4821056;28;102184;-73
2023/05/17 08:55:59;;;;;;;;;21.75;16.50;;;;;9.10;100.00;98400.38;4820642;28;104013;-73
2023/05/17 08:58:30;;;;;;;;;17.75;15.00;;;;;9.13;100.00;98408.09;4823325;29;101998;-73
2023/05/17 09:01:08;;;;;;;;;17.75;17.75;;;;;8.79;100.00;98346.84;4820076;28;102130;-72
2023/05/17 09:03:39;;;;;;;;;20.00;18.25;;;;;9.18;100.00;98405.66;4820800;28;103128;-73
2023/05/17 09:06:09;;;;;;;;;19.00;16.50;;;;;9.24;100.00;98404.00;4823401;28;104408;-73
2023/05/17 09:08:37;;;;;;;;;20.00;17.50;;;;;9.24;100.00;98404.00;4819880;28;102063;-72
2023/05/17 09:11:04;;;;;;;;;18.25;16.25;;;;;9.23;100.00;98413.16;4822681;29;102234;-74
2023/05/17 09:13:31;;;;;;;;;21.25;18.25;;;;;9.17;100.00;98403.97;4820734;28;102920;-72
2023/05/17 09:15:58;;;;;;;;;21.25;19.00;;;;;9.09;100.00;98396.03;4822179;29;104052;-72
2023/05/17 09:18:32;;;;;;;;;19.50;16.25;;;;;9.16;100.00;98402.31;4823992;28;102968;-73
2023/05/17 09:21:06;;;;;;;;;21.00;19.75;;;;;9.19;100.00;98412.69;4825404;28;102504;-72
2023/05/17 09:23:33;;;;;;;;;19.75;15.75;;;;;9.22;100.00;98401.53;4823474;28;102529;-72
2023/05/17 09:26:05;;;;;;;;;12.25;12.00;;;;;9.25;100.00;98395.72;4826347;28;104113;-72
2023/05/17 09:28:38;;;;;;;;;16.50;14.75;;;;;9.33;100.00;98408.22;4816465;28;103445;-71
2023/05/17 09:31:09;;;;;;;;;16.00;13.75;;;;;9.26;100.00;98407.34;4821325;28;102157;-72
2023/05/17 09:33:47;;;;;;;;;13.25;10.75;;;;;9.17;100.00;98417.47;4822922;28;102248;-72
2023/05/17 09:36:18;;;;;;;;;10.50;10.50;;;;;9.12;100.00;98419.06;4822213;28;103831;-71
2023/05/17 09:38:58;;;;;;;;;12.00;10.25;;;;;9.07;100.00;98414.28;4823098;28;101954;-72
2023/05/17 09:41:26;;;;;;;;;11.00;11.00;;;;;9.09;100.00;98433.81;4820073;28;101753;-73
2023/05/17 09:43:57;;;;;;;;;15.00;11.75;;;;;9.11;100.00;98441.69;4824727;28;102278;-74
2023/05/17 09:46:24;;;;;;;;;12.50;11.75;;;;;9.14;100.00;98441.31;4819407;28;104160;-72
2023/05/17 09:48:55;;;;;;;;;12.50;12.00;;;;;8.96;100.00;98423.72;4822148;28;101983;-72
2023/05/17 09:51:42;;;;;;;;;14.75;14.50;;;;;9.05;100.00;98450.56;4818465;28;101963;-71
2023/05/17 09:54:10;;;;;;;;;14.25;13.00;;;;;8.99;100.00;98445.94;4820544;28;102083;-72
2023/05/17 09:56:37;;;;;;;;;14.25;13.75;;;;;8.97;100.00;98451.53;4820784;28;104053;-72
2023/05/17 09:59:11;;;;;;;;;13.25;12.00;;;;;9.06;100.00;98452.22;4819979;28;102241;-72
2023/05/17 10:01:46;;;;;;;;;17.50;14.00;;;;;8.98;100.00;98450.50;4819759;28;102179;-71
2023/05/17 10:04:19;;;;;;;;;16.25;13.25;;;;;9.00;100.00;98455.72;4822319;28;102432;-72
2023/05/17 10:06:48;;;;;;;;;13.50;10.50;;;;;8.91;100.00;98441.53;4818320;29;104177;-72
2023/05/17 10:09:21;;;;;;;;;16.75;15.00;;;;;9.00;100.00;98455.72;4817533;28;102489;-73
2023/05/17 10:11:51;;;;;;;;;14.75;14.00;;;;;8.96;100.00;98455.25;4818393;28;102318;-72
2023/05/17 10:14:26;;;;;;;;;17.00;15.00;;;;;8.98;100.00;98453.19;4817009;29;102442;-73
2023/05/17 10:16:54;;;;;;;;;13.50;11.50;;;;;9.05;100.00;98450.56;4819914;28;103825;-72
2023/05/17 10:19:23;;;;;;;;;15.25;13.25;;;;;8.95;100.00;98449.03;4822420;28;102446;-72
2023/05/17 10:21:52;;;;;;;;;12.75;12.25;;;;;9.01;100.00;98455.50;4818868;28;102325;-73
2023/05/17 10:24:20;;;;;;;;;18.00;17.00;;;;;9.04;100.00;98462.38;4821051;28;102241;-72
2023/05/17 10:26:51;;;;;;;;;15.25;13.25;;;;;9.05;100.00;98453.28;4821860;28;104023;-72
2023/05/17 10:29:21;;;;;;;;;14.50;13.50;;;;;9.12;100.00;98459.53;4822450;28;102415;-72
2023/05/17 10:31:50;;;;;;;;;19.75;16.50;;;;;9.10;100.00;98472.38;4817596;29;102086;-73
2023/05/17 10:34:18;;;;;;;;;15.25;14.50;;;;;9.11;100.00;98469.50;4823174;28;102346;-72
2023/05/17 10:36:48;;;;;;;;;11.50;11.25;;;;;9.20;100.00;98473.72;4821707;28;104074;-72
2023/05/17 10:39:16;;;;;;;;;17.50;13.00;;;;;9.15;100.00;98476.16;4821078;28;102252;-73
2023/05/17 10:41:45;;;;;;;;;16.00;12.25;;;;;9.26;100.00;98469.41;4822128;29;102294;-72
2023/05/17 10:44:15;;;;;;;;;14.25;13.50;;;;;9.21;100.00;98474.56;4821422;29;101944;-72
2023/05/17 10:46:56;;;;;;;;;17.00;15.00;;;;;9.16;100.00;98477.84;4820203;28;104149;-72
2023/05/17 10:49:30;;;;;;;;;19.25;17.00;;;;;9.15;100.00;98486.94;4821674;28;102038;-72
2023/05/17 10:52:10;;;;;;;;;15.75;13.00;;;;;9.15;100.00;98486.09;4817831;29;102498;-73
2023/05/17 10:54:41;;;;;;;;;19.25;17.00;;;;;8.99;100.00;98494.50;4819182;29;102407;-72
2023/05/17 10:57:31;;;;;;;;;18.50;16.50;;;;;8.85;100.00;98498.91;4819282;28;103980;-73
2023/05/17 11:00:19;;;;;;;;;17.00;16.75;;;;;8.85;100.00;98493.53;4819264;28;102329;-72
2023/05/17 11:02:47;;;;;;;;;16.00;14.50;;;;;8.75;100.00;98510.00;4822748;29;102060;-75
2023/05/17 11:05:25;;;;;;;;;23.00;20.75;;;;;8.79;100.00;98508.59;4819017;28;102194;-73
2023/05/17 11:08:15;;;;;;;;;18.25;16.00;;;;;8.75;100.00;98514.56;4822195;28;103573;-72
2023/05/17 11:11:09;;;;;;;;;22.00;17.00;;;;;8.70;100.00;98519.69;4819334;29;102327;-72
2023/05/17 11:13:56;;;;;;;;;16.00;15.00;;;;;8.72;100.00;98521.19;4806754;29;102375;-72
2023/05/17 11:16:34;;;;;;;;;23.75;18.00;;;;;8.65;100.00;98530.22;4819494;28;102789;-72
2023/05/17 11:19:09;;;;;;;;;24.75;19.25;;;;;8.65;100.00;98522.97;4819267;28;104098;-72
2023/05/17 11:21:47;;;;;;;;;23.00;21.25;;;;;8.63;100.00;98525.03;4819411;28;102334;-73